Decoded Metar for LFPN (TOUSSOUS-LE-NOBLE in FRANCE) (IATA:TNF) | Meteo·Mobile Aviation Weather
aviador You're here:

LFPN Decoded Metar

TOUSSOUS-LE-NOBLE in FRANCE
Report Time2019-10-19 22:30:00
UTC Time2019-10-19 22:51:25
Flight Rules mvfr MVFR
WindCalm
Visibility7000 m
Phenomena:Light Rain
Clouds:Few 019 Hf
Broken 076 Hf
Ceiling7,600 ft
Temp11°C (ISA -3)
Dew Point11°C (100% RH)
QNH1006 hPa
Density Alt604 ft
Elevation538 ft
Report Wrong Elevation
Raw Report
LFPN 192230Z AUTO 00000KT 7000 -RA FEW019 BKN076 11/11 Q1006=

Extra information for LFPN:More info

Metar Taf Metar & Taf Last 4 Metars F.Rules Stats Wind Profile Meteogram Temp Stats Airport Information Weather charts Add Link Nearby VenuesMetar ALERT Operation Metar Decoded Social comments